sensor_id;sensor_type;location;lat;lon;timestamp;P1;durP1;ratioP1;P2;durP2;ratioP2
39674;SDS011;27790;50.840;4.386;2023-07-20T00:02:20;7.88;;;2.55;;
39674;SDS011;27790;50.840;4.386;2023-07-20T00:04:46;4.90;;;2.33;;
39674;SDS011;27790;50.840;4.386;2023-07-20T00:07:11;6.78;;;3.00;;
39674;SDS011;27790;50.840;4.386;2023-07-20T00:09:37;7.78;;;2.63;;
39674;SDS011;27790;50.840;4.386;2023-07-20T00:12:03;8.85;;;2.78;;
39674;SDS011;27790;50.840;4.386;2023-07-20T00:14:28;12.80;;;2.72;;
39674;SDS011;27790;50.840;4.386;2023-07-20T00:16:55;5.07;;;2.53;;
39674;SDS011;27790;50.840;4.386;2023-07-20T00:19:27;6.65;;;2.20;;
39674;SDS011;27790;50.840;4.386;2023-07-20T00:21:53;5.60;;;2.45;;
39674;SDS011;27790;50.840;4.386;2023-07-20T00:24:19;10.23;;;2.70;;
39674;SDS011;27790;50.840;4.386;2023-07-20T00:26:45;6.63;;;2.40;;
39674;SDS011;27790;50.840;4.386;2023-07-20T00:29:11;5.70;;;2.22;;
39674;SDS011;27790;50.840;4.386;2023-07-20T00:31:37;6.75;;;2.67;;
39674;SDS011;27790;50.840;4.386;2023-07-20T00:34:03;4.88;;;2.60;;
39674;SDS011;27790;50.840;4.386;2023-07-20T00:36:29;5.63;;;2.08;;
39674;SDS011;27790;50.840;4.386;2023-07-20T00:38:55;9.57;;;2.65;;
39674;SDS011;27790;50.840;4.386;2023-07-20T00:41:20;4.55;;;2.47;;
39674;SDS011;27790;50.840;4.386;2023-07-20T00:43:46;8.75;;;3.05;;
39674;SDS011;27790;50.840;4.386;2023-07-20T00:46:12;3.13;;;2.10;;
39674;SDS011;27790;50.840;4.386;2023-07-20T00:48:38;4.75;;;2.38;;
39674;SDS011;27790;50.840;4.386;2023-07-20T00:51:06;8.52;;;2.63;;
39674;SDS011;27790;50.840;4.386;2023-07-20T00:53:32;10.35;;;2.58;;
39674;SDS011;27790;50.840;4.386;2023-07-20T00:55:58;7.47;;;2.53;;
39674;SDS011;27790;50.840;4.386;2023-07-20T00:58:23;5.00;;;2.88;;
39674;SDS011;27790;50.840;4.386;2023-07-20T01:00:49;8.00;;;2.60;;
39674;SDS011;27790;50.840;4.386;2023-07-20T01:03:15;7.57;;;2.72;;
39674;SDS011;27790;50.840;4.386;2023-07-20T01:11:22;8.07;;;3.25;;
39674;SDS011;27790;50.840;4.386;2023-07-20T01:13:53;6.25;;;2.55;;
39674;SDS011;27790;50.840;4.386;2023-07-20T01:16:20;13.90;;;2.85;;
39674;SDS011;27790;50.840;4.386;2023-07-20T01:18:45;8.45;;;2.70;;
39674;SDS011;27790;50.840;4.386;2023-07-20T01:21:13;7.65;;;2.53;;
39674;SDS011;27790;50.840;4.386;2023-07-20T01:32:06;15.63;;;4.20;;
39674;SDS011;27790;50.840;4.386;2023-07-20T01:34:33;7.75;;;2.95;;
39674;SDS011;27790;50.840;4.386;2023-07-20T01:37:00;11.93;;;3.42;;
39674;SDS011;27790;50.840;4.386;2023-07-20T01:39:27;14.60;;;4.00;;
39674;SDS011;27790;50.840;4.386;2023-07-20T01:41:53;8.57;;;3.42;;
39674;SDS011;27790;50.840;4.386;2023-07-20T01:44:19;7.38;;;3.92;;
39674;SDS011;27790;50.840;4.386;2023-07-20T01:46:45;14.88;;;3.88;;
39674;SDS011;27790;50.840;4.386;2023-07-20T01:49:10;10.65;;;3.88;;
39674;SDS011;27790;50.840;4.386;2023-07-20T01:51:36;9.20;;;4.38;;
39674;SDS011;27790;50.840;4.386;2023-07-20T01:54:02;9.60;;;3.45;;
39674;SDS011;27790;50.840;4.386;2023-07-20T01:56:28;14.00;;;4.20;;
39674;SDS011;27790;50.840;4.386;2023-07-20T01:58:54;12.13;;;4.40;;
39674;SDS011;27790;50.840;4.386;2023-07-20T02:01:19;12.65;;;3.05;;
39674;SDS011;27790;50.840;4.386;2023-07-20T02:03:45;12.60;;;4.07;;
39674;SDS011;27790;50.840;4.386;2023-07-20T02:06:10;12.10;;;3.60;;
39674;SDS011;27790;50.840;4.386;2023-07-20T02:08:36;10.05;;;3.63;;
39674;SDS011;27790;50.840;4.386;2023-07-20T02:11:01;10.68;;;4.47;;
39674;SDS011;27790;50.840;4.386;2023-07-20T02:13:27;12.57;;;4.80;;
39674;SDS011;27790;50.840;4.386;2023-07-20T02:15:53;9.90;;;4.18;;
39674;SDS011;27790;50.840;4.386;2023-07-20T02:18:21;11.50;;;4.47;;
39674;SDS011;27790;50.840;4.386;2023-07-20T02:20:47;11.82;;;4.68;;
39674;SDS011;27790;50.840;4.386;2023-07-20T02:23:12;14.77;;;5.00;;
39674;SDS011;27790;50.840;4.386;2023-07-20T02:25:38;12.35;;;5.43;;
39674;SDS011;27790;50.840;4.386;2023-07-20T02:28:04;12.43;;;4.75;;
39674;SDS011;27790;50.840;4.386;2023-07-20T02:30:30;14.90;;;5.35;;
39674;SDS011;27790;50.840;4.386;2023-07-20T02:32:55;11.20;;;4.85;;
39674;SDS011;27790;50.840;4.386;2023-07-20T02:35:23;17.30;;;5.70;;
39674;SDS011;27790;50.840;4.386;2023-07-20T02:37:49;16.45;;;5.45;;
39674;SDS011;27790;50.840;4.386;2023-07-20T02:40:14;16.20;;;4.55;;
39674;SDS011;27790;50.840;4.386;2023-07-20T02:42:40;12.18;;;5.32;;
39674;SDS011;27790;50.840;4.386;2023-07-20T02:45:06;13.02;;;5.80;;
39674;SDS011;27790;50.840;4.386;2023-07-20T02:47:32;17.70;;;5.90;;
39674;SDS011;27790;50.840;4.386;2023-07-20T02:49:58;14.25;;;6.45;;
39674;SDS011;27790;50.840;4.386;2023-07-20T02:52:24;11.10;;;5.47;;
39674;SDS011;27790;50.840;4.386;2023-07-20T02:54:50;17.35;;;5.85;;
39674;SDS011;27790;50.840;4.386;2023-07-20T02:57:15;15.27;;;5.30;;
39674;SDS011;27790;50.840;4.386;2023-07-20T02:59:41;10.93;;;6.07;;
39674;SDS011;27790;50.840;4.386;2023-07-20T03:02:07;11.38;;;5.70;;
39674;SDS011;27790;50.840;4.386;2023-07-20T03:04:34;11.70;;;5.97;;
39674;SDS011;27790;50.840;4.386;2023-07-20T03:07:02;12.65;;;6.65;;
39674;SDS011;27790;50.840;4.386;2023-07-20T03:09:29;15.15;;;6.88;;
39674;SDS011;27790;50.840;4.386;2023-07-20T03:11:54;11.75;;;6.38;;
39674;SDS011;27790;50.840;4.386;2023-07-20T03:14:20;13.45;;;6.05;;
39674;SDS011;27790;50.840;4.386;2023-07-20T03:16:45;13.63;;;6.43;;
39674;SDS011;27790;50.840;4.386;2023-07-20T03:19:11;15.98;;;6.05;;
39674;SDS011;27790;50.840;4.386;2023-07-20T03:21:37;20.48;;;8.50;;
39674;SDS011;27790;50.840;4.386;2023-07-20T03:24:06;16.02;;;7.65;;
39674;SDS011;27790;50.840;4.386;2023-07-20T03:26:34;14.38;;;6.50;;
39674;SDS011;27790;50.840;4.386;2023-07-20T03:29:00;14.85;;;7.97;;
39674;SDS011;27790;50.840;4.386;2023-07-20T03:31:26;14.30;;;6.30;;
39674;SDS011;27790;50.840;4.386;2023-07-20T03:33:51;13.95;;;6.75;;
39674;SDS011;27790;50.840;4.386;2023-07-20T03:36:17;22.38;;;7.30;;
39674;SDS011;27790;50.840;4.386;2023-07-20T03:38:43;13.05;;;7.50;;
39674;SDS011;27790;50.840;4.386;2023-07-20T03:41:08;19.33;;;7.38;;
39674;SDS011;27790;50.840;4.386;2023-07-20T03:43:34;14.35;;;8.13;;
39674;SDS011;27790;50.840;4.386;2023-07-20T03:46:00;14.70;;;7.20;;
39674;SDS011;27790;50.840;4.386;2023-07-20T03:48:25;15.38;;;7.35;;
39674;SDS011;27790;50.840;4.386;2023-07-20T03:50:52;15.88;;;7.93;;
39674;SDS011;27790;50.840;4.386;2023-07-20T03:53:18;12.43;;;7.60;;
39674;SDS011;27790;50.840;4.386;2023-07-20T03:55:45;13.40;;;7.30;;
39674;SDS011;27790;50.840;4.386;2023-07-20T03:58:11;15.15;;;7.57;;
39674;SDS011;27790;50.840;4.386;2023-07-20T04:00:38;14.07;;;8.07;;
39674;SDS011;27790;50.840;4.386;2023-07-20T04:03:03;13.13;;;8.27;;
39674;SDS011;27790;50.840;4.386;2023-07-20T04:05:29;12.60;;;7.88;;
39674;SDS011;27790;50.840;4.386;2023-07-20T04:07:54;12.50;;;7.53;;
39674;SDS011;27790;50.840;4.386;2023-07-20T04:10:20;17.67;;;8.02;;
39674;SDS011;27790;50.840;4.386;2023-07-20T04:12:46;18.45;;;7.82;;
39674;SDS011;27790;50.840;4.386;2023-07-20T04:15:14;17.00;;;7.65;;
39674;SDS011;27790;50.840;4.386;2023-07-20T04:17:40;16.50;;;8.20;;
39674;SDS011;27790;50.840;4.386;2023-07-20T04:20:06;15.65;;;8.13;;
39674;SDS011;27790;50.840;4.386;2023-07-20T04:22:32;12.38;;;7.65;;
39674;SDS011;27790;50.840;4.386;2023-07-20T04:24:58;14.02;;;7.75;;
39674;SDS011;27790;50.840;4.386;2023-07-20T04:27:24;11.82;;;8.07;;
39674;SDS011;27790;50.840;4.386;2023-07-20T04:29:51;15.27;;;8.50;;
39674;SDS011;27790;50.840;4.386;2023-07-20T04:32:16;15.88;;;8.30;;
39674;SDS011;27790;50.840;4.386;2023-07-20T04:34:42;14.35;;;8.60;;
39674;SDS011;27790;50.840;4.386;2023-07-20T04:37:07;19.95;;;8.02;;
39674;SDS011;27790;50.840;4.386;2023-07-20T04:39:33;14.63;;;8.25;;
39674;SDS011;27790;50.840;4.386;2023-07-20T04:41:59;17.02;;;8.32;;
39674;SDS011;27790;50.840;4.386;2023-07-20T04:44:24;19.77;;;8.98;;
39674;SDS011;27790;50.840;4.386;2023-07-20T04:46:50;13.60;;;8.50;;
39674;SDS011;27790;50.840;4.386;2023-07-20T04:49:16;17.80;;;8.70;;
39674;SDS011;27790;50.840;4.386;2023-07-20T04:51:41;14.43;;;7.82;;
39674;SDS011;27790;50.840;4.386;2023-07-20T04:54:07;19.00;;;8.23;;
39674;SDS011;27790;50.840;4.386;2023-07-20T04:56:32;19.48;;;8.35;;
39674;SDS011;27790;50.840;4.386;2023-07-20T04:58:58;13.88;;;8.18;;
39674;SDS011;27790;50.840;4.386;2023-07-20T05:01:24;21.15;;;9.15;;
39674;SDS011;27790;50.840;4.386;2023-07-20T05:03:51;13.65;;;7.40;;
39674;SDS011;27790;50.840;4.386;2023-07-20T05:06:17;19.42;;;8.18;;
39674;SDS011;27790;50.840;4.386;2023-07-20T05:08:43;14.52;;;7.55;;
39674;SDS011;27790;50.840;4.386;2023-07-20T05:11:09;20.55;;;9.05;;
39674;SDS011;27790;50.840;4.386;2023-07-20T05:13:35;17.10;;;8.68;;
39674;SDS011;27790;50.840;4.386;2023-07-20T05:16:01;13.95;;;7.70;;
39674;SDS011;27790;50.840;4.386;2023-07-20T05:18:26;14.90;;;8.35;;
39674;SDS011;27790;50.840;4.386;2023-07-20T05:20:52;21.05;;;8.43;;
39674;SDS011;27790;50.840;4.386;2023-07-20T05:23:19;16.83;;;8.38;;
39674;SDS011;27790;50.840;4.386;2023-07-20T05:25:45;14.48;;;8.10;;
39674;SDS011;27790;50.840;4.386;2023-07-20T05:28:11;21.00;;;10.13;;
39674;SDS011;27790;50.840;4.386;2023-07-20T05:30:37;15.23;;;8.30;;
39674;SDS011;27790;50.840;4.386;2023-07-20T05:33:03;11.52;;;7.68;;
39674;SDS011;27790;50.840;4.386;2023-07-20T05:35:28;11.93;;;7.35;;
39674;SDS011;27790;50.840;4.386;2023-07-20T05:37:54;9.25;;;7.00;;
39674;SDS011;27790;50.840;4.386;2023-07-20T05:40:20;13.55;;;8.23;;
39674;SDS011;27790;50.840;4.386;2023-07-20T05:42:46;12.63;;;8.13;;
39674;SDS011;27790;50.840;4.386;2023-07-20T05:45:17;15.07;;;6.65;;
39674;SDS011;27790;50.840;4.386;2023-07-20T05:47:43;13.98;;;7.53;;
39674;SDS011;27790;50.840;4.386;2023-07-20T05:50:09;11.55;;;8.27;;
39674;SDS011;27790;50.840;4.386;2023-07-20T05:52:35;13.32;;;7.80;;
39674;SDS011;27790;50.840;4.386;2023-07-20T05:55:01;15.95;;;7.85;;
39674;SDS011;27790;50.840;4.386;2023-07-20T05:57:28;13.70;;;7.63;;
39674;SDS011;27790;50.840;4.386;2023-07-20T05:59:53;14.18;;;7.55;;
39674;SDS011;27790;50.840;4.386;2023-07-20T06:02:19;9.35;;;7.10;;
39674;SDS011;27790;50.840;4.386;2023-07-20T06:04:45;17.02;;;7.10;;
39674;SDS011;27790;50.840;4.386;2023-07-20T06:07:10;15.98;;;7.60;;
39674;SDS011;27790;50.840;4.386;2023-07-20T06:09:36;14.20;;;7.03;;
39674;SDS011;27790;50.840;4.386;2023-07-20T06:12:02;9.18;;;6.68;;
39674;SDS011;27790;50.840;4.386;2023-07-20T06:14:27;8.45;;;5.72;;
39674;SDS011;27790;50.840;4.386;2023-07-20T06:16:53;9.93;;;5.20;;
39674;SDS011;27790;50.840;4.386;2023-07-20T06:19:18;7.88;;;4.72;;
39674;SDS011;27790;50.840;4.386;2023-07-20T06:21:44;10.43;;;4.68;;
39674;SDS011;27790;50.840;4.386;2023-07-20T06:24:10;4.55;;;4.05;;
39674;SDS011;27790;50.840;4.386;2023-07-20T06:26:35;8.30;;;4.72;;
39674;SDS011;27790;50.840;4.386;2023-07-20T06:29:04;5.47;;;4.43;;
39674;SDS011;27790;50.840;4.386;2023-07-20T06:31:34;6.75;;;4.47;;
39674;SDS011;27790;50.840;4.386;2023-07-20T06:34:00;6.13;;;3.90;;
39674;SDS011;27790;50.840;4.386;2023-07-20T06:36:26;3.60;;;2.78;;
39674;SDS011;27790;50.840;4.386;2023-07-20T06:38:51;5.00;;;4.07;;
39674;SDS011;27790;50.840;4.386;2023-07-20T06:41:17;6.05;;;3.40;;
39674;SDS011;27790;50.840;4.386;2023-07-20T06:43:44;6.10;;;3.47;;
39674;SDS011;27790;50.840;4.386;2023-07-20T06:46:10;6.68;;;3.58;;
39674;SDS011;27790;50.840;4.386;2023-07-20T06:48:36;4.53;;;2.40;;
39674;SDS011;27790;50.840;4.386;2023-07-20T06:51:01;2.60;;;2.40;;
39674;SDS011;27790;50.840;4.386;2023-07-20T06:53:27;5.25;;;2.55;;
39674;SDS011;27790;50.840;4.386;2023-07-20T06:55:56;2.97;;;1.88;;
39674;SDS011;27790;50.840;4.386;2023-07-20T06:58:22;2.75;;;2.00;;
39674;SDS011;27790;50.840;4.386;2023-07-20T07:00:49;4.20;;;2.28;;
39674;SDS011;27790;50.840;4.386;2023-07-20T07:03:14;1.92;;;1.73;;
39674;SDS011;27790;50.840;4.386;2023-07-20T07:05:40;3.75;;;2.22;;
39674;SDS011;27790;50.840;4.386;2023-07-20T07:08:06;2.47;;;1.30;;
39674;SDS011;27790;50.840;4.386;2023-07-20T07:10:32;2.17;;;1.33;;
39674;SDS011;27790;50.840;4.386;2023-07-20T07:13:01;4.10;;;2.08;;
39674;SDS011;27790;50.840;4.386;2023-07-20T07:15:27;2.92;;;1.60;;
39674;SDS011;27790;50.840;4.386;2023-07-20T07:17:52;3.40;;;1.45;;
39674;SDS011;27790;50.840;4.386;2023-07-20T07:20:18;2.28;;;1.45;;
39674;SDS011;27790;50.840;4.386;2023-07-20T07:22:44;1.80;;;1.30;;
39674;SDS011;27790;50.840;4.386;2023-07-20T07:25:10;2.45;;;1.40;;
39674;SDS011;27790;50.840;4.386;2023-07-20T07:27:36;4.35;;;1.67;;
39674;SDS011;27790;50.840;4.386;2023-07-20T07:30:02;1.50;;;1.40;;
39674;SDS011;27790;50.840;4.386;2023-07-20T07:32:28;3.08;;;1.90;;
39674;SDS011;27790;50.840;4.386;2023-07-20T07:34:54;2.15;;;1.27;;
39674;SDS011;27790;50.840;4.386;2023-07-20T07:37:20;1.75;;;1.30;;
39674;SDS011;27790;50.840;4.386;2023-07-20T07:39:46;2.22;;;1.45;;
39674;SDS011;27790;50.840;4.386;2023-07-20T07:42:11;2.25;;;1.70;;
39674;SDS011;27790;50.840;4.386;2023-07-20T07:44:38;5.72;;;1.48;;
39674;SDS011;27790;50.840;4.386;2023-07-20T07:47:03;2.65;;;2.03;;
39674;SDS011;27790;50.840;4.386;2023-07-20T07:49:29;1.38;;;1.20;;
39674;SDS011;27790;50.840;4.386;2023-07-20T07:51:56;1.77;;;1.67;;
39674;SDS011;27790;50.840;4.386;2023-07-20T07:54:22;3.25;;;1.52;;
39674;SDS011;27790;50.840;4.386;2023-07-20T07:56:47;2.03;;;1.75;;
39674;SDS011;27790;50.840;4.386;2023-07-20T07:59:13;1.70;;;1.60;;
39674;SDS011;27790;50.840;4.386;2023-07-20T08:01:38;1.55;;;1.27;;
39674;SDS011;27790;50.840;4.386;2023-07-20T08:04:04;1.98;;;1.30;;
39674;SDS011;27790;50.840;4.386;2023-07-20T08:06:30;3.50;;;1.15;;
39674;SDS011;27790;50.840;4.386;2023-07-20T08:08:56;2.05;;;0.98;;
39674;SDS011;27790;50.840;4.386;2023-07-20T08:11:23;1.95;;;0.90;;
39674;SDS011;27790;50.840;4.386;2023-07-20T08:13:49;3.53;;;1.13;;
39674;SDS011;27790;50.840;4.386;2023-07-20T08:16:14;1.20;;;1.10;;
39674;SDS011;27790;50.840;4.386;2023-07-20T08:18:40;2.38;;;1.05;;
39674;SDS011;27790;50.840;4.386;2023-07-20T08:21:05;2.85;;;1.40;;
39674;SDS011;27790;50.840;4.386;2023-07-20T08:23:31;3.38;;;1.10;;
39674;SDS011;27790;50.840;4.386;2023-07-20T08:25:57;1.10;;;0.90;;
39674;SDS011;27790;50.840;4.386;2023-07-20T08:28:22;2.00;;;1.20;;
39674;SDS011;27790;50.840;4.386;2023-07-20T08:30:48;1.15;;;1.00;;
39674;SDS011;27790;50.840;4.386;2023-07-20T08:33:15;2.35;;;1.40;;
39674;SDS011;27790;50.840;4.386;2023-07-20T08:35:46;2.28;;;1.40;;
39674;SDS011;27790;50.840;4.386;2023-07-20T08:38:12;2.72;;;1.30;;
39674;SDS011;27790;50.840;4.386;2023-07-20T08:40:41;2.20;;;1.05;;
39674;SDS011;27790;50.840;4.386;2023-07-20T08:45:38;2.42;;;1.48;;
39674;SDS011;27790;50.840;4.386;2023-07-20T08:48:05;1.85;;;1.50;;
39674;SDS011;27790;50.840;4.386;2023-07-20T08:50:31;3.25;;;1.48;;
39674;SDS011;27790;50.840;4.386;2023-07-20T08:52:58;2.45;;;1.52;;
39674;SDS011;27790;50.840;4.386;2023-07-20T08:55:28;1.85;;;1.42;;
39674;SDS011;27790;50.840;4.386;2023-07-20T08:57:54;4.75;;;1.40;;
39674;SDS011;27790;50.840;4.386;2023-07-20T09:00:24;1.70;;;1.20;;
39674;SDS011;27790;50.840;4.386;2023-07-20T09:02:52;2.58;;;1.35;;
39674;SDS011;27790;50.840;4.386;2023-07-20T09:05:19;3.03;;;1.48;;
39674;SDS011;27790;50.840;4.386;2023-07-20T09:07:45;4.18;;;1.70;;
39674;SDS011;27790;50.840;4.386;2023-07-20T09:10:11;2.83;;;1.40;;
39674;SDS011;27790;50.840;4.386;2023-07-20T09:15:05;2.50;;;1.52;;
39674;SDS011;27790;50.840;4.386;2023-07-20T09:17:31;3.40;;;1.83;;
39674;SDS011;27790;50.840;4.386;2023-07-20T09:19:57;4.35;;;1.85;;
39674;SDS011;27790;50.840;4.386;2023-07-20T09:22:29;2.80;;;1.65;;
39674;SDS011;27790;50.840;4.386;2023-07-20T09:24:55;2.95;;;1.50;;
39674;SDS011;27790;50.840;4.386;2023-07-20T09:27:21;2.65;;;1.67;;
39674;SDS011;27790;50.840;4.386;2023-07-20T09:29:47;1.35;;;1.17;;
39674;SDS011;27790;50.840;4.386;2023-07-20T09:32:15;1.42;;;1.33;;
39674;SDS011;27790;50.840;4.386;2023-07-20T09:34:47;6.93;;;1.40;;
39674;SDS011;27790;50.840;4.386;2023-07-20T09:37:19;1.33;;;0.90;;
39674;SDS011;27790;50.840;4.386;2023-07-20T09:39:46;2.85;;;1.00;;
39674;SDS011;27790;50.840;4.386;2023-07-20T09:42:13;4.90;;;1.33;;
39674;SDS011;27790;50.840;4.386;2023-07-20T09:44:39;0.80;;;0.65;;
39674;SDS011;27790;50.840;4.386;2023-07-20T09:47:05;5.38;;;1.15;;
39674;SDS011;27790;50.840;4.386;2023-07-20T09:49:31;2.63;;;0.98;;
39674;SDS011;27790;50.840;4.386;2023-07-20T09:51:57;1.75;;;1.20;;
39674;SDS011;27790;50.840;4.386;2023-07-20T09:54:25;0.93;;;0.90;;
39674;SDS011;27790;50.840;4.386;2023-07-20T09:56:53;1.08;;;0.98;;
39674;SDS011;27790;50.840;4.386;2023-07-20T09:59:19;0.77;;;0.77;;
39674;SDS011;27790;50.840;4.386;2023-07-20T10:01:45;2.03;;;1.58;;
39674;SDS011;27790;50.840;4.386;2023-07-20T10:04:12;2.25;;;1.27;;
39674;SDS011;27790;50.840;4.386;2023-07-20T10:06:42;1.35;;;1.02;;
39674;SDS011;27790;50.840;4.386;2023-07-20T10:09:08;2.53;;;1.25;;
39674;SDS011;27790;50.840;4.386;2023-07-20T10:11:37;3.85;;;1.48;;
39674;SDS011;27790;50.840;4.386;2023-07-20T10:14:08;3.83;;;1.60;;
39674;SDS011;27790;50.840;4.386;2023-07-20T10:16:39;1.48;;;1.17;;
39674;SDS011;27790;50.840;4.386;2023-07-20T10:19:23;3.95;;;1.33;;
39674;SDS011;27790;50.840;4.386;2023-07-20T10:21:56;3.88;;;1.40;;
39674;SDS011;27790;50.840;4.386;2023-07-20T10:24:26;1.25;;;1.02;;
39674;SDS011;27790;50.840;4.386;2023-07-20T10:26:53;4.47;;;1.27;;
39674;SDS011;27790;50.840;4.386;2023-07-20T10:29:20;2.25;;;1.23;;
39674;SDS011;27790;50.840;4.386;2023-07-20T10:31:47;5.38;;;1.10;;
39674;SDS011;27790;50.840;4.386;2023-07-20T10:34:14;2.67;;;1.00;;
39674;SDS011;27790;50.840;4.386;2023-07-20T10:36:46;1.30;;;0.85;;
39674;SDS011;27790;50.840;4.386;2023-07-20T10:39:23;2.38;;;1.02;;
39674;SDS011;27790;50.840;4.386;2023-07-20T10:42:08;8.85;;;1.52;;
39674;SDS011;27790;50.840;4.386;2023-07-20T10:44:38;1.25;;;1.15;;
39674;SDS011;27790;50.840;4.386;2023-07-20T10:47:12;1.45;;;1.20;;
39674;SDS011;27790;50.840;4.386;2023-07-20T10:52:42;2.30;;;0.90;;
39674;SDS011;27790;50.840;4.386;2023-07-20T10:55:13;2.75;;;1.20;;
39674;SDS011;27790;50.840;4.386;2023-07-20T10:57:40;1.50;;;1.40;;
39674;SDS011;27790;50.840;4.386;2023-07-20T11:00:07;1.00;;;1.00;;
39674;SDS011;27790;50.840;4.386;2023-07-20T11:02:46;1.30;;;1.20;;
39674;SDS011;27790;50.840;4.386;2023-07-20T11:08:03;3.63;;;1.48;;
39674;SDS011;27790;50.840;4.386;2023-07-20T11:10:30;2.90;;;1.10;;
39674;SDS011;27790;50.840;4.386;2023-07-20T11:13:29;3.40;;;1.10;;
39674;SDS011;27790;50.840;4.386;2023-07-20T11:16:01;2.58;;;1.65;;
39674;SDS011;27790;50.840;4.386;2023-07-20T11:18:32;1.63;;;1.40;;
39674;SDS011;27790;50.840;4.386;2023-07-20T11:20:59;4.18;;;1.30;;
39674;SDS011;27790;50.840;4.386;2023-07-20T11:23:25;1.58;;;1.48;;
39674;SDS011;27790;50.840;4.386;2023-07-20T11:25:51;2.90;;;1.55;;
39674;SDS011;27790;50.840;4.386;2023-07-20T11:28:16;1.83;;;1.60;;
39674;SDS011;27790;50.840;4.386;2023-07-20T11:30:42;1.70;;;1.60;;
39674;SDS011;27790;50.840;4.386;2023-07-20T11:33:08;1.73;;;1.50;;
39674;SDS011;27790;50.840;4.386;2023-07-20T11:35:44;4.25;;;1.60;;
39674;SDS011;27790;50.840;4.386;2023-07-20T11:38:13;4.05;;;2.20;;
39674;SDS011;27790;50.840;4.386;2023-07-20T11:40:45;3.25;;;1.90;;
39674;SDS011;27790;50.840;4.386;2023-07-20T11:43:12;2.50;;;1.87;;
39674;SDS011;27790;50.840;4.386;2023-07-20T11:45:38;2.08;;;1.98;;
39674;SDS011;27790;50.840;4.386;2023-07-20T11:48:04;1.98;;;1.45;;
39674;SDS011;27790;50.840;4.386;2023-07-20T11:50:30;3.75;;;2.03;;
39674;SDS011;27790;50.840;4.386;2023-07-20T11:52:56;2.28;;;2.08;;
39674;SDS011;27790;50.840;4.386;2023-07-20T11:55:22;2.78;;;2.00;;
39674;SDS011;27790;50.840;4.386;2023-07-20T11:58:04;1.83;;;1.73;;
39674;SDS011;27790;50.840;4.386;2023-07-20T12:00:30;4.65;;;2.88;;
39674;SDS011;27790;50.840;4.386;2023-07-20T12:02:59;5.88;;;2.50;;
39674;SDS011;27790;50.840;4.386;2023-07-20T12:05:25;3.40;;;2.63;;
39674;SDS011;27790;50.840;4.386;2023-07-20T12:07:51;2.95;;;2.65;;
39674;SDS011;27790;50.840;4.386;2023-07-20T12:10:23;8.15;;;3.00;;
39674;SDS011;27790;50.840;4.386;2023-07-20T12:15:16;2.75;;;2.50;;
39674;SDS011;27790;50.840;4.386;2023-07-20T12:17:46;3.80;;;2.90;;
39674;SDS011;27790;50.840;4.386;2023-07-20T12:20:24;4.20;;;2.50;;
39674;SDS011;27790;50.840;4.386;2023-07-20T12:22:59;2.28;;;2.10;;
39674;SDS011;27790;50.840;4.386;2023-07-20T12:25:33;3.13;;;2.30;;
39674;SDS011;27790;50.840;4.386;2023-07-20T12:28:01;2.45;;;2.13;;
39674;SDS011;27790;50.840;4.386;2023-07-20T12:30:29;3.92;;;2.17;;
39674;SDS011;27790;50.840;4.386;2023-07-20T12:32:55;2.65;;;2.40;;
39674;SDS011;27790;50.840;4.386;2023-07-20T12:35:21;4.53;;;3.05;;
39674;SDS011;27790;50.840;4.386;2023-07-20T12:37:46;2.60;;;2.40;;
39674;SDS011;27790;50.840;4.386;2023-07-20T12:40:14;5.25;;;2.88;;
39674;SDS011;27790;50.840;4.386;2023-07-20T12:42:39;3.45;;;3.05;;
39674;SDS011;27790;50.840;4.386;2023-07-20T12:45:05;5.35;;;2.72;;
39674;SDS011;27790;50.840;4.386;2023-07-20T12:47:31;2.90;;;2.70;;
39674;SDS011;27790;50.840;4.386;2023-07-20T12:49:57;5.15;;;2.47;;
39674;SDS011;27790;50.840;4.386;2023-07-20T12:52:22;2.70;;;1.88;;
39674;SDS011;27790;50.840;4.386;2023-07-20T12:54:48;2.78;;;2.45;;
39674;SDS011;27790;50.840;4.386;2023-07-20T12:57:14;3.67;;;2.60;;
39674;SDS011;27790;50.840;4.386;2023-07-20T12:59:39;3.10;;;2.47;;
39674;SDS011;27790;50.840;4.386;2023-07-20T13:02:05;2.83;;;2.25;;
39674;SDS011;27790;50.840;4.386;2023-07-20T13:04:31;3.03;;;2.30;;
39674;SDS011;27790;50.840;4.386;2023-07-20T13:06:57;2.42;;;2.22;;
39674;SDS011;27790;50.840;4.386;2023-07-20T13:09:23;3.30;;;2.55;;
39674;SDS011;27790;50.840;4.386;2023-07-20T13:11:50;2.88;;;2.67;;
39674;SDS011;27790;50.840;4.386;2023-07-20T13:14:16;4.38;;;2.08;;
39674;SDS011;27790;50.840;4.386;2023-07-20T13:16:41;2.35;;;2.25;;
39674;SDS011;27790;50.840;4.386;2023-07-20T13:19:07;4.32;;;2.15;;
39674;SDS011;27790;50.840;4.386;2023-07-20T13:21:33;5.47;;;1.98;;
39674;SDS011;27790;50.840;4.386;2023-07-20T13:23:59;4.03;;;2.33;;
39674;SDS011;27790;50.840;4.386;2023-07-20T13:26:24;4.05;;;2.00;;
39674;SDS011;27790;50.840;4.386;2023-07-20T13:28:50;4.00;;;2.80;;
39674;SDS011;27790;50.840;4.386;2023-07-20T13:31:16;4.05;;;2.80;;
39674;SDS011;27790;50.840;4.386;2023-07-20T13:33:42;6.38;;;3.35;;
39674;SDS011;27790;50.840;4.386;2023-07-20T13:36:08;3.60;;;2.65;;
39674;SDS011;27790;50.840;4.386;2023-07-20T13:38:33;7.80;;;2.28;;
39674;SDS011;27790;50.840;4.386;2023-07-20T13:40:59;5.03;;;2.47;;
39674;SDS011;27790;50.840;4.386;2023-07-20T13:43:24;3.53;;;2.80;;
39674;SDS011;27790;50.840;4.386;2023-07-20T13:45:50;2.60;;;2.40;;
39674;SDS011;27790;50.840;4.386;2023-07-20T13:48:16;2.15;;;2.05;;
39674;SDS011;27790;50.840;4.386;2023-07-20T13:50:44;5.13;;;1.77;;
39674;SDS011;27790;50.840;4.386;2023-07-20T13:53:10;3.15;;;1.63;;
39674;SDS011;27790;50.840;4.386;2023-07-20T13:55:36;6.18;;;1.90;;
39674;SDS011;27790;50.840;4.386;2023-07-20T13:58:03;2.75;;;1.90;;
39674;SDS011;27790;50.840;4.386;2023-07-20T14:00:29;2.28;;;1.83;;
39674;SDS011;27790;50.840;4.386;2023-07-20T14:02:58;2.50;;;1.70;;
39674;SDS011;27790;50.840;4.386;2023-07-20T14:05:24;2.80;;;1.92;;
39674;SDS011;27790;50.840;4.386;2023-07-20T14:07:50;1.75;;;1.60;;
39674;SDS011;27790;50.840;4.386;2023-07-20T14:10:16;4.00;;;1.70;;
39674;SDS011;27790;50.840;4.386;2023-07-20T14:12:42;3.33;;;1.67;;
39674;SDS011;27790;50.840;4.386;2023-07-20T14:15:07;3.38;;;1.70;;
39674;SDS011;27790;50.840;4.386;2023-07-20T14:17:34;2.20;;;1.48;;
39674;SDS011;27790;50.840;4.386;2023-07-20T14:20:00;4.47;;;2.08;;
39674;SDS011;27790;50.840;4.386;2023-07-20T14:22:25;6.20;;;1.73;;
39674;SDS011;27790;50.840;4.386;2023-07-20T14:24:51;2.78;;;1.70;;
39674;SDS011;27790;50.840;4.386;2023-07-20T14:27:18;4.30;;;1.95;;
39674;SDS011;27790;50.840;4.386;2023-07-20T14:29:44;4.60;;;1.65;;
39674;SDS011;27790;50.840;4.386;2023-07-20T14:32:09;2.05;;;1.88;;
39674;SDS011;27790;50.840;4.386;2023-07-20T14:34:35;1.75;;;1.65;;
39674;SDS011;27790;50.840;4.386;2023-07-20T14:37:01;4.43;;;1.80;;
39674;SDS011;27790;50.840;4.386;2023-07-20T14:39:27;2.10;;;1.63;;
39674;SDS011;27790;50.840;4.386;2023-07-20T14:41:53;2.25;;;1.88;;
39674;SDS011;27790;50.840;4.386;2023-07-20T14:44:18;2.30;;;1.70;;
39674;SDS011;27790;50.840;4.386;2023-07-20T14:46:45;4.80;;;1.83;;
39674;SDS011;27790;50.840;4.386;2023-07-20T14:49:11;8.10;;;2.30;;
39674;SDS011;27790;50.840;4.386;2023-07-20T14:51:37;4.18;;;1.90;;
39674;SDS011;27790;50.840;4.386;2023-07-20T14:54:08;2.38;;;1.90;;
39674;SDS011;27790;50.840;4.386;2023-07-20T14:56:35;4.20;;;2.20;;
39674;SDS011;27790;50.840;4.386;2023-07-20T14:59:02;5.30;;;1.98;;
39674;SDS011;27790;50.840;4.386;2023-07-20T15:01:29;3.22;;;1.80;;
39674;SDS011;27790;50.840;4.386;2023-07-20T15:03:54;2.83;;;2.00;;
39674;SDS011;27790;50.840;4.386;2023-07-20T15:06:21;2.88;;;2.08;;
39674;SDS011;27790;50.840;4.386;2023-07-20T15:08:47;8.70;;;1.98;;